Time;durP1;ratioP1;P1;durP2;ratioP2;P2;SDS_P1;SDS_P2;PMS_P1;PMS_P2;Temp;Humidity;BMP_temperature;BMP_pressure;BME280_temperature;BME280_humidity;BME280_pressure;Samples;Min_cycle;Max_cycle;Signal;HPM_P1;HPM_P2
2024/01/03 00:01:34;;;;;;;29.73;20.58;;;;;;;5.45;72.48;94274.16;4197716;28;20124;-71
2024/01/03 00:03:36;;;;;;;25.90;19.85;;;;;;;4.86;75.27;94266.38;4206497;28;20044;-68
2024/01/03 00:05:39;;;;;;;24.88;20.17;;;;;;;4.55;75.50;94280.38;4192425;28;20040;-68
2024/01/03 00:07:41;;;;;;;27.40;20.33;;;;;;;4.40;76.43;94278.16;4195421;28;20535;-68
2024/01/03 00:09:43;;;;;;;27.60;20.83;;;;;;;4.34;76.83;94285.63;4192121;28;20494;-70
2024/01/03 00:11:45;;;;;;;25.80;19.35;;;;;;;4.49;77.58;94287.72;4196449;28;20513;-68
2024/01/03 00:14:05;;;;;;;24.35;19.33;;;;;;;4.72;76.95;94283.16;4205651;28;20059;-71
2024/01/03 00:16:07;;;;;;;22.67;17.48;;;;;;;4.93;76.46;94280.44;4204914;28;20052;-70
2024/01/03 00:18:30;;;;;;;22.95;18.13;;;;;;;5.18;75.58;94282.66;4204632;28;20296;-71
2024/01/03 00:20:35;;;;;;;23.98;18.58;;;;;;;5.36;74.68;94278.41;4183743;28;20067;-71
2024/01/03 00:22:37;;;;;;;25.17;18.48;;;;;;;5.51;74.32;94284.81;4204331;28;20040;-70
2024/01/03 00:24:48;;;;;;;30.65;23.23;;;;;;;5.62;73.37;94280.44;4201861;28;20067;-70
2024/01/03 00:26:50;;;;;;;26.17;21.02;;;;;;;5.58;73.43;94274.69;4200604;28;20460;-70
2024/01/03 00:28:52;;;;;;;25.25;20.40;;;;;;;5.61;73.38;94282.19;4202248;28;20045;-71
2024/01/03 00:30:54;;;;;;;28.30;20.77;;;;;;;5.63;73.48;94282.88;4210169;28;20342;-70
2024/01/03 00:32:56;;;;;;;27.27;20.45;;;;;;;5.72;73.90;94276.88;4195730;28;20055;-68
2024/01/03 00:35:09;;;;;;;25.83;20.25;;;;;;;5.83;73.05;94280.25;4210714;28;20048;-71
2024/01/03 00:37:30;;;;;;;31.73;21.30;;;;;;;5.83;72.88;94267.25;4200099;28;20063;-69
2024/01/03 00:39:33;;;;;;;27.45;21.15;;;;;;;5.66;73.38;94271.41;4206434;28;20060;-71
2024/01/03 00:41:34;;;;;;;25.75;20.85;;;;;;;5.68;73.14;94278.09;4209135;28;20067;-70
2024/01/03 00:43:37;;;;;;;28.23;20.35;;;;;;;5.70;73.72;94275.34;4200816;28;20056;-69
2024/01/03 00:45:39;;;;;;;26.80;20.40;;;;;;;5.73;73.36;94275.91;4199842;28;21176;-72
2024/01/03 00:47:40;;;;;;;27.15;20.23;;;;;;;5.76;72.67;94287.78;4197190;28;20076;-72
2024/01/03 00:49:42;;;;;;;27.00;20.35;;;;;;;5.80;72.65;94275.34;4203774;28;20048;-71
2024/01/03 00:51:47;;;;;;;26.58;19.27;;;;;;;5.81;72.76;94266.56;4200525;28;20055;-72
2024/01/03 00:53:49;;;;;;;29.42;20.35;;;;;;;5.83;73.07;94262.06;4194652;28;20044;-69
2024/01/03 00:55:51;;;;;;;28.00;19.90;;;;;;;5.88;72.88;94278.88;4196419;28;20052;-70
2024/01/03 00:57:55;;;;;;;27.33;20.55;;;;;;;5.91;72.38;94270.78;4195110;28;20102;-69
2024/01/03 00:59:57;;;;;;;;;;;;;;;5.89;72.26;94275.34;4206892;28;20052;-70
2024/01/03 01:01:59;;;;;;;27.63;20.35;;;;;;;5.87;72.94;94276.41;4205688;28;19978;-71
2024/01/03 01:04:01;;;;;;;26.30;21.58;;;;;;;5.92;72.70;94276.84;4204685;28;20766;-70
2024/01/03 01:06:03;;;;;;;29.38;21.23;;;;;;;5.87;72.76;94286.81;4210328;28;20048;-68
2024/01/03 01:08:06;;;;;;;27.25;20.98;;;;;;;5.88;72.54;94289.28;4206652;28;21534;-69
2024/01/03 01:10:08;;;;;;;25.90;20.23;;;;;;;5.89;72.52;94269.28;4208681;28;20617;-69
2024/01/03 01:12:10;;;;;;;27.38;19.73;;;;;;;5.93;72.70;94271.47;4209146;28;20272;-70
2024/01/03 01:14:12;;;;;;;26.25;20.98;;;;;;;5.98;72.43;94263.31;4209397;28;20051;-71
2024/01/03 01:16:14;;;;;;;27.05;20.23;;;;;;;5.99;72.13;94259.72;4198338;28;20052;-71
2024/01/03 01:18:16;;;;;;;29.27;23.00;;;;;;;5.96;72.13;94270.41;4197734;28;20489;-70
2024/01/03 01:20:18;;;;;;;27.77;21.73;;;;;;;5.91;72.21;94267.38;4199970;28;20092;-70
2024/01/03 01:22:20;;;;;;;29.83;22.50;;;;;;;5.90;72.71;94260.56;4199408;28;20313;-71
2024/01/03 01:24:23;;;;;;;29.38;23.98;;;;;;;5.88;72.42;94257.28;4203829;28;20136;-73
2024/01/03 01:26:24;;;;;;;25.45;20.13;;;;;;;5.95;72.16;94253.16;4208121;28;20052;-70
2024/01/03 01:28:26;;;;;;;25.20;19.83;;;;;;;5.97;72.03;94253.84;4203873;28;20052;-71
2024/01/03 01:30:28;;;;;;;29.00;22.10;;;;;;;6.00;72.25;94255.34;4200671;28;20057;-70
2024/01/03 01:32:30;;;;;;;29.33;21.90;;;;;;;6.00;72.35;94255.34;4203209;28;20048;-70
2024/01/03 01:34:32;;;;;;;27.05;22.25;;;;;;;5.92;72.33;94238.66;4204565;28;20082;-70
2024/01/03 01:36:34;;;;;;;29.38;21.23;;;;;;;5.87;72.60;94240.00;4196790;28;20784;-70
2024/01/03 01:38:36;;;;;;;26.90;20.73;;;;;;;5.91;72.64;94241.38;4207992;28;20131;-71
2024/01/03 01:40:38;;;;;;;28.27;21.27;;;;;;;5.75;72.73;94237.59;4192967;28;20410;-70
2024/01/03 01:42:46;;;;;;;28.20;20.35;;;;;;;5.81;73.50;94238.81;4206211;28;20055;-71
2024/01/03 01:44:48;;;;;;;26.58;21.30;;;;;;;5.79;72.93;94251.13;4201653;28;20037;-69
2024/01/03 01:46:50;;;;;;;27.23;21.55;;;;;;;5.79;73.63;94252.94;4203883;28;20431;-71
2024/01/03 01:48:53;;;;;;;27.92;21.17;;;;;;;5.84;72.82;94250.72;4206716;28;20132;-70
2024/01/03 01:50:55;;;;;;;25.48;19.77;;;;;;;5.93;72.95;94240.25;4196456;28;20044;-71
2024/01/03 01:52:58;;;;;;;27.35;20.48;;;;;;;5.97;72.49;94240.03;4199624;28;20411;-68
2024/01/03 01:55:00;;;;;;;24.98;18.90;;;;;;;5.96;72.89;94239.22;4193659;28;20051;-71
2024/01/03 01:57:02;;;;;;;26.60;20.33;;;;;;;5.90;73.20;94245.75;4196016;28;20053;-69
2024/01/03 01:59:04;;;;;;;28.13;20.65;;;;;;;5.93;72.52;94234.25;4206620;28;20075;-71
2024/01/03 02:01:06;;;;;;;25.85;20.35;;;;;;;5.96;72.56;94241.81;4205190;28;20048;-72
2024/01/03 02:03:08;;;;;;;28.00;20.63;;;;;;;6.01;72.54;94242.19;4195960;28;20045;-70
2024/01/03 02:05:10;;;;;;;29.15;21.90;;;;;;;6.00;72.78;94242.34;4208133;28;20167;-68
2024/01/03 02:07:13;;;;;;;25.95;20.85;;;;;;;5.80;72.87;94251.94;4202553;28;20051;-69
2024/01/03 02:09:15;;;;;;;25.77;19.92;;;;;;;5.75;73.38;94245.38;4209693;28;20048;-70
2024/01/03 02:11:17;;;;;;;26.20;20.70;;;;;;;5.67;73.44;94244.47;4195266;28;20044;-70
2024/01/03 02:13:19;;;;;;;26.02;20.40;;;;;;;5.61;73.60;94245.00;4198438;28;20044;-70
2024/01/03 02:15:20;;;;;;;25.20;20.42;;;;;;;5.63;74.13;94258.69;4203339;28;20101;-71
2024/01/03 02:17:22;;;;;;;26.38;20.15;;;;;;;5.71;74.12;94259.63;4197569;28;20080;-71
2024/01/03 02:19:25;;;;;;;27.30;20.05;;;;;;;5.64;73.79;94255.16;4204922;28;20052;-70
2024/01/03 02:21:27;;;;;;;25.05;20.00;;;;;;;5.66;74.54;94253.22;4205865;28;20429;-71
2024/01/03 02:23:28;;;;;;;26.38;20.77;;;;;;;5.68;73.52;94249.53;4193336;28;20045;-68
2024/01/03 02:25:30;;;;;;;29.73;20.80;;;;;;;5.68;73.39;94252.13;4193790;28;20106;-70
2024/01/03 02:27:32;;;;;;;25.70;20.80;;;;;;;5.68;73.86;94251.31;4202182;28;20105;-69
2024/01/03 02:29:34;;;;;;;25.75;20.73;;;;;;;5.77;74.21;94244.44;4203958;28;20062;-70
2024/01/03 02:31:36;;;;;;;26.42;20.65;;;;;;;5.83;73.22;94234.31;4198237;28;20414;-70
2024/01/03 02:33:37;;;;;;;26.30;19.45;;;;;;;5.86;73.26;94228.00;4201297;28;20040;-70
2024/01/03 02:35:40;;;;;;;26.23;19.85;;;;;;;5.88;73.54;94220.88;4198723;28;20044;-70
2024/01/03 02:37:41;;;;;;;24.55;19.35;;;;;;;5.87;73.03;94220.06;4200174;28;20110;-69
2024/01/03 02:39:43;;;;;;;25.42;20.38;;;;;;;5.83;73.24;94218.72;4197110;28;20494;-70
2024/01/03 02:41:45;;;;;;;24.00;19.40;;;;;;;5.88;73.15;94218.28;4198138;28;20040;-71
2024/01/03 02:43:47;;;;;;;22.90;19.08;;;;;;;5.90;73.51;94222.38;4199409;28;20044;-69
2024/01/03 02:45:49;;;;;;;22.77;19.15;;;;;;;5.94;73.05;94223.75;4201048;28;20513;-71
2024/01/03 02:47:50;;;;;;;23.52;19.15;;;;;;;5.86;73.36;94213.22;4198378;28;20093;-70
2024/01/03 02:49:57;;;;;;;23.63;18.95;;;;;;;5.86;73.14;94207.19;4205250;28;20071;-71
2024/01/03 02:52:00;;;;;;;24.45;19.15;;;;;;;5.82;73.62;94208.44;4203137;28;20117;-70
2024/01/03 02:54:02;;;;;;;23.92;17.77;;;;;;;5.83;73.39;94204.88;4207349;28;20044;-70
2024/01/03 02:56:04;;;;;;;21.38;17.17;;;;;;;5.85;73.78;94201.19;4199061;28;20048;-71
2024/01/03 02:58:06;;;;;;;22.23;17.35;;;;;;;5.74;73.24;94194.38;4191707;28;20052;-67
2024/01/03 03:00:10;;;;;;;23.40;18.95;;;;;;;5.74;73.62;94201.34;4193079;28;20048;-70
2024/01/03 03:02:12;;;;;;;24.48;17.77;;;;;;;5.70;73.19;94198.22;4194242;28;20438;-69
2024/01/03 03:04:13;;;;;;;22.48;16.85;;;;;;;5.73;74.14;94191.91;4198270;28;20058;-69
2024/01/03 03:06:15;;;;;;;21.70;17.88;;;;;;;5.61;74.56;94188.66;4196554;28;20053;-68
2024/01/03 03:08:17;;;;;;;23.25;18.10;;;;;;;5.45;74.77;94198.84;4208795;28;20060;-70
2024/01/03 03:10:19;;;;;;;23.40;17.67;;;;;;;5.22;75.20;94200.91;4205374;28;20048;-70
2024/01/03 03:12:21;;;;;;;22.92;18.70;;;;;;;5.09;75.97;94188.22;4201560;28;20486;-70
2024/01/03 03:14:24;;;;;;;21.73;17.48;;;;;;;5.22;76.78;94203.50;4199528;28;20116;-71
2024/01/03 03:16:26;;;;;;;22.88;18.83;;;;;;;5.31;76.44;94200.91;4197377;28;20653;-73
2024/01/03 03:18:28;;;;;;;20.83;17.00;;;;;;;5.43;76.60;94201.56;4197173;28;20058;-68
2024/01/03 03:20:30;;;;;;;23.13;17.15;;;;;;;5.51;75.68;94206.06;4196541;28;20048;-70
2024/01/03 03:22:32;;;;;;;23.90;18.17;;;;;;;5.57;75.20;94197.72;4208834;28;20044;-71
2024/01/03 03:24:34;;;;;;;21.17;17.17;;;;;;;5.64;75.28;94190.19;4205597;28;20142;-69
2024/01/03 03:26:36;;;;;;;22.55;18.08;;;;;;;5.67;75.21;94198.50;4191274;28;20240;-70
2024/01/03 03:28:38;;;;;;;19.42;16.63;;;;;;;5.69;75.29;94191.38;4200205;28;20511;-69
2024/01/03 03:30:40;;;;;;;20.98;17.02;;;;;;;5.78;75.42;94191.50;4204708;28;20154;-71
2024/01/03 03:32:44;;;;;;;22.27;17.85;;;;;;;5.84;74.72;94178.75;4203060;28;20054;-70
2024/01/03 03:34:46;;;;;;;20.15;16.42;;;;;;;5.87;74.50;94180.22;4198476;28;20226;-69
2024/01/03 03:36:48;;;;;;;20.52;16.98;;;;;;;5.89;74.19;94173.09;4206164;28;20446;-69
2024/01/03 03:38:50;;;;;;;21.40;16.25;;;;;;;5.91;74.58;94165.97;4196600;28;20463;-70
2024/01/03 03:40:52;;;;;;;20.50;16.17;;;;;;;5.88;73.93;94171.47;4204033;28;20065;-70
2024/01/03 03:42:54;;;;;;;21.58;16.40;;;;;;;5.90;74.09;94170.38;4192698;28;20048;-72
2024/01/03 03:44:56;;;;;;;21.33;16.35;;;;;;;5.98;74.27;94167.09;4203436;28;20123;-69
2024/01/03 03:46:58;;;;;;;20.17;16.77;;;;;;;5.90;74.17;94157.38;4205279;28;20363;-69
2024/01/03 03:48:59;;;;;;;23.17;16.95;;;;;;;5.90;74.02;94162.56;4192403;28;20091;-71
2024/01/03 03:51:02;;;;;;;19.48;16.33;;;;;;;5.95;74.58;94173.38;4195998;28;20113;-71
2024/01/03 03:53:10;;;;;;;21.33;15.80;;;;;;;5.97;74.16;94175.84;4203514;28;20060;-70
2024/01/03 03:55:15;;;;;;;20.42;16.67;;;;;;;6.01;73.68;94142.59;4201899;28;20063;-69
2024/01/03 03:57:17;;;;;;;19.90;16.83;;;;;;;6.00;74.18;94152.16;4192877;28;20127;-69
2024/01/03 03:59:19;;;;;;;18.70;15.95;;;;;;;6.04;74.35;94152.69;4204978;28;20484;-70
2024/01/03 04:01:21;;;;;;;21.70;17.45;;;;;;;6.09;73.58;94147.88;4195216;28;20549;-71
2024/01/03 04:03:23;;;;;;;21.90;17.63;;;;;;;6.13;73.96;94163.06;4197338;28;20104;-68
2024/01/03 04:05:25;;;;;;;21.27;17.88;;;;;;;6.09;73.73;94166.91;4199323;28;20048;-69
2024/01/03 04:07:31;;;;;;;18.40;16.20;;;;;;;6.05;73.98;94170.75;4208095;28;20051;-69
2024/01/03 04:09:32;;;;;;;19.42;17.23;;;;;;;6.07;73.85;94166.22;4208240;28;20048;-71
2024/01/03 04:11:41;;;;;;;23.15;17.30;;;;;;;6.08;73.52;94165.25;4201835;28;20506;-71
2024/01/03 04:13:43;;;;;;;20.23;17.20;;;;;;;6.10;73.84;94168.53;4207729;28;20138;-71
2024/01/03 04:15:45;;;;;;;24.02;18.48;;;;;;;5.99;73.55;94160.09;4207298;28;20048;-70
2024/01/03 04:17:47;;;;;;;21.65;17.77;;;;;;;6.00;74.36;94175.56;4195718;28;20044;-69
2024/01/03 04:19:49;;;;;;;20.95;17.55;;;;;;;5.95;73.90;94168.19;4205764;28;20075;-71
2024/01/03 04:21:51;;;;;;;20.92;18.10;;;;;;;5.83;75.30;94168.47;4199831;28;20136;-73
2024/01/03 04:23:53;;;;;;;23.70;18.40;;;;;;;5.91;75.10;94165.97;4201850;28;20113;-70
2024/01/03 04:25:55;;;;;;;21.02;17.30;;;;;;;5.98;75.11;94172.31;4201908;28;20045;-70
2024/01/03 04:27:57;;;;;;;24.08;18.95;;;;;;;6.06;74.58;94172.38;4199223;28;20059;-72
2024/01/03 04:29:59;;;;;;;22.65;19.27;;;;;;;5.89;74.15;94179.16;4208102;28;20131;-71
2024/01/03 04:32:01;;;;;;;24.38;19.75;;;;;;;5.93;75.10;94193.47;4209031;28;20050;-69
2024/01/03 04:34:03;;;;;;;24.92;20.50;;;;;;;5.95;74.57;94186.38;4205406;28;20414;-70
2024/01/03 04:36:06;;;;;;;24.02;19.50;;;;;;;6.02;74.72;94197.03;4208174;28;20716;-70
2024/01/03 04:38:07;;;;;;;24.10;19.88;;;;;;;6.05;74.74;94191.56;4205942;28;20466;-69
2024/01/03 04:40:10;;;;;;;20.98;18.15;;;;;;;6.06;74.43;94194.97;4205627;28;20131;-70
2024/01/03 04:42:12;;;;;;;23.73;19.25;;;;;;;6.10;73.63;94197.13;4203796;28;20067;-70
2024/01/03 04:44:14;;;;;;;23.88;18.42;;;;;;;6.12;73.99;94194.41;4204269;28;20051;-71
2024/01/03 04:46:16;;;;;;;25.25;19.17;;;;;;;6.14;73.16;94182.06;4205173;28;20052;-71
2024/01/03 04:48:18;;;;;;;25.42;20.33;;;;;;;6.06;73.70;94185.38;4209192;28;20102;-69
2024/01/03 04:50:20;;;;;;;24.20;18.30;;;;;;;6.08;73.84;94180.03;4199154;28;20206;-70
2024/01/03 04:52:22;;;;;;;22.77;18.90;;;;;;;6.13;73.70;94177.81;4194611;28;20059;-68
2024/01/03 04:54:24;;;;;;;24.10;18.33;;;;;;;6.18;73.68;94193.00;4203755;28;20052;-68
2024/01/03 04:56:26;;;;;;;23.45;18.65;;;;;;;6.23;73.36;94175.19;4198998;28;20049;-69
2024/01/03 04:58:28;;;;;;;23.25;18.73;;;;;;;6.21;73.03;94177.09;4197827;28;20048;-72
2024/01/03 05:00:30;;;;;;;23.15;18.83;;;;;;;6.19;73.77;94174.63;4207250;28;20067;-70
2024/01/03 05:02:32;;;;;;;22.05;17.75;;;;;;;6.25;73.44;94178.44;4202100;28;20044;-70
2024/01/03 05:04:34;;;;;;;22.42;19.00;;;;;;;6.28;73.00;94175.53;4201184;28;20049;-72
2024/01/03 05:06:37;;;;;;;23.40;18.65;;;;;;;6.28;72.80;94165.13;4207134;28;20090;-69
2024/01/03 05:08:39;;;;;;;24.65;17.88;;;;;;;6.29;73.32;94172.00;4204127;28;20558;-67
2024/01/03 05:10:41;;;;;;;22.40;18.02;;;;;;;6.30;72.79;94179.66;4198176;28;20059;-71
2024/01/03 05:12:44;;;;;;;21.73;18.33;;;;;;;6.34;73.34;94169.75;4199693;28;20318;-69
2024/01/03 05:14:45;;;;;;;21.95;18.33;;;;;;;6.42;72.77;94179.44;4198366;28;20056;-70
2024/01/03 05:16:47;;;;;;;23.25;19.77;;;;;;;6.44;72.58;94173.13;4205104;28;20076;-71
2024/01/03 05:18:49;;;;;;;24.90;20.00;;;;;;;6.39;72.97;94169.31;4195423;28;20045;-71
2024/01/03 05:20:51;;;;;;;25.77;20.10;;;;;;;6.33;72.78;94168.94;4203620;28;20092;-72
2024/01/03 05:22:54;;;;;;;26.27;20.10;;;;;;;6.31;73.23;94160.47;4209538;28;20135;-71
2024/01/03 05:24:55;;;;;;;23.52;20.13;;;;;;;5.88;73.93;94163.69;4210887;28;20371;-71
2024/01/03 05:26:57;;;;;;;25.20;20.35;;;;;;;5.69;75.26;94165.38;4207926;28;20110;-71
2024/01/03 05:29:00;;;;;;;26.08;21.38;;;;;;;5.68;75.97;94168.97;4209744;28;20379;-71
2024/01/03 05:31:01;;;;;;;23.92;19.92;;;;;;;5.76;76.23;94170.84;4196119;28;20135;-70
2024/01/03 05:33:04;;;;;;;26.10;20.75;;;;;;;5.71;74.81;94173.06;4202832;28;20446;-71
2024/01/03 05:35:06;;;;;;;26.13;21.63;;;;;;;5.44;76.12;94177.25;4209224;28;20205;-70
2024/01/03 05:37:08;;;;;;;24.55;20.50;;;;;;;5.55;76.96;94176.25;4207892;28;20063;-69
2024/01/03 05:39:13;;;;;;;24.38;19.98;;;;;;;5.53;75.80;94172.97;4206260;28;20051;-72
2024/01/03 05:41:15;;;;;;;26.05;22.30;;;;;;;5.29;76.59;94191.59;4202027;28;20052;-70
2024/01/03 05:43:17;;;;;;;28.55;21.73;;;;;;;5.30;76.59;94188.88;4199132;28;20102;-70
2024/01/03 05:45:19;;;;;;;28.77;23.08;;;;;;;5.23;76.94;94187.00;4196431;28;20052;-71
2024/01/03 05:47:21;;;;;;;26.95;22.35;;;;;;;5.39;77.65;94187.22;4196672;28;20067;-70
2024/01/03 05:49:23;;;;;;;30.83;23.73;;;;;;;5.46;76.83;94177.09;4196830;28;20117;-71
2024/01/03 05:51:25;;;;;;;33.78;24.25;;;;;;;5.52;76.04;94174.72;4195694;28;20117;-71
2024/01/03 05:53:27;;;;;;;37.70;26.58;;;;;;;5.29;75.66;94184.66;4196954;28;20115;-72
2024/01/03 05:55:28;;;;;;;36.45;27.70;;;;;;;5.21;75.96;94181.13;4205914;28;20515;-71
2024/01/03 05:57:30;;;;;;;39.15;28.38;;;;;;;4.94;75.45;94174.84;4195065;28;20048;-70
2024/01/03 05:59:32;;;;;;;36.05;28.00;;;;;;;4.88;76.53;94178.81;4201626;28;20052;-71
2024/01/03 06:01:34;;;;;;;39.47;27.27;;;;;;;4.88;76.04;94185.75;4203368;28;21501;-71
2024/01/03 06:03:37;;;;;;;40.95;27.98;;;;;;;4.23;77.40;94196.63;4204560;28;20058;-71
2024/01/03 06:05:40;;;;;;;37.92;27.90;;;;;;;4.37;77.32;94169.50;4201025;28;20047;-68
2024/01/03 06:07:44;;;;;;;35.70;26.55;;;;;;;4.37;76.58;94181.66;4203553;28;20147;-69
2024/01/03 06:09:46;;;;;;;;;;;;;;;4.45;76.52;94169.66;4204461;28;20054;-70
2024/01/03 06:11:47;;;;;;;33.78;25.20;;;;;;;4.48;76.16;94174.56;4202002;28;19920;-72
2024/01/03 06:13:51;;;;;;;34.88;26.13;;;;;;;4.65;76.70;94167.06;4206537;28;20139;-70
2024/01/03 06:15:53;;;;;;;27.08;22.35;;;;;;;4.76;76.48;94186.88;4207368;28;20052;-72
2024/01/03 06:17:55;;;;;;;34.85;23.02;;;;;;;4.87;75.15;94192.75;4202510;28;20052;-73
2024/01/03 06:19:57;;;;;;;30.88;22.88;;;;;;;4.93;74.87;94188.78;4201051;28;20092;-72
2024/01/03 06:21:59;;;;;;;28.40;22.48;;;;;;;4.99;75.36;94193.44;4198854;28;20048;-72
2024/01/03 06:24:00;;;;;;;29.95;23.55;;;;;;;4.79;75.58;94179.63;4203383;28;20078;-70
2024/01/03 06:26:04;;;;;;;32.45;23.42;;;;;;;4.82;75.74;94179.38;4197942;28;20036;-70
2024/01/03 06:28:05;;;;;;;29.08;23.40;;;;;;;4.91;75.68;94185.50;4205055;28;20064;-71
2024/01/03 06:30:08;;;;;;;30.85;23.05;;;;;;;5.04;75.41;94195.63;4193562;28;20049;-72
2024/01/03 06:32:10;;;;;;;29.52;23.40;;;;;;;5.20;75.11;94190.66;4199211;28;20139;-71
2024/01/03 06:34:12;;;;;;;27.95;22.60;;;;;;;5.31;74.88;94172.34;4205776;28;20060;-72
2024/01/03 06:36:14;;;;;;;30.65;23.50;;;;;;;5.41;74.56;94179.28;4203724;28;20048;-72
2024/01/03 06:38:16;;;;;;;26.92;21.15;;;;;;;5.22;74.07;94178.34;4197321;28;20083;-71
2024/01/03 06:40:18;;;;;;;29.42;21.75;;;;;;;5.21;74.93;94171.53;4200173;28;20395;-71
2024/01/03 06:42:19;;;;;;;25.08;20.55;;;;;;;5.30;75.62;94169.88;4204155;28;20048;-71
2024/01/03 06:44:21;;;;;;;26.05;20.98;;;;;;;5.13;74.78;94153.22;4195163;28;20047;-71
2024/01/03 06:46:27;;;;;;;27.25;21.98;;;;;;;5.16;75.64;94154.72;4201690;28;20055;-69
2024/01/03 06:48:29;;;;;;;24.98;21.63;;;;;;;5.13;76.38;94140.25;4205041;28;20077;-73
2024/01/03 06:50:31;;;;;;;27.10;21.50;;;;;;;5.03;76.24;94174.00;4196817;28;20082;-71
2024/01/03 06:52:33;;;;;;;26.58;22.30;;;;;;;4.84;76.61;94184.41;4205051;28;20047;-72
2024/01/03 06:54:35;;;;;;;27.63;22.05;;;;;;;4.62;77.62;94190.69;4194197;28;20474;-71
2024/01/03 06:56:37;;;;;;;24.83;20.15;;;;;;;4.82;78.10;94170.75;4201445;28;20074;-72
2024/01/03 06:58:39;;;;;;;30.40;22.00;;;;;;;5.04;78.14;94156.66;4198580;28;20048;-71
2024/01/03 07:00:40;;;;;;;27.02;21.67;;;;;;;5.27;77.13;94173.59;4208764;28;20502;-72
2024/01/03 07:02:42;;;;;;;25.88;20.63;;;;;;;5.22;76.18;94174.94;4208088;28;20060;-69
2024/01/03 07:04:44;;;;;;;26.10;21.67;;;;;;;4.89;77.74;94172.66;4203472;28;20048;-70
2024/01/03 07:06:46;;;;;;;25.33;20.80;;;;;;;5.06;77.93;94168.56;4197122;28;20560;-70
2024/01/03 07:08:49;;;;;;;25.20;19.60;;;;;;;5.26;78.25;94169.34;4208521;28;20044;-69
2024/01/03 07:10:51;;;;;;;29.17;20.15;;;;;;;5.47;77.10;94165.75;4196169;28;20174;-69
2024/01/03 07:12:56;;;;;;;26.58;18.70;;;;;;;5.45;75.95;94172.84;4192391;28;20052;-72
2024/01/03 07:14:58;;;;;;;25.50;19.45;;;;;;;5.41;76.57;94171.50;4192974;28;20078;-72
2024/01/03 07:17:00;;;;;;;24.45;19.52;;;;;;;5.48;76.34;94156.97;4199353;28;20044;-71
2024/01/03 07:19:03;;;;;;;23.95;17.83;;;;;;;5.62;76.44;94163.50;4205136;28;20052;-69
2024/01/03 07:21:07;;;;;;;24.00;18.95;;;;;;;5.75;76.12;94170.00;4208106;28;20111;-71
2024/01/03 07:23:09;;;;;;;26.13;19.77;;;;;;;5.67;75.80;94177.69;4200253;28;20531;-71
2024/01/03 07:25:12;;;;;;;25.27;18.75;;;;;;;5.66;75.70;94188.25;4192937;28;20074;-71
2024/01/03 07:27:15;;;;;;;22.95;17.83;;;;;;;5.79;75.73;94190.53;4204978;28;20609;-71
2024/01/03 07:29:16;;;;;;;22.90;17.75;;;;;;;5.92;75.25;94178.03;4195690;28;20191;-71
2024/01/03 07:31:18;;;;;;;23.33;18.52;;;;;;;6.01;75.35;94179.78;4200662;28;20139;-72
2024/01/03 07:33:20;;;;;;;22.20;18.08;;;;;;;6.12;74.47;94174.41;4204582;28;20465;-71
2024/01/03 07:35:23;;;;;;;22.50;17.40;;;;;;;6.24;74.85;94176.78;4199388;28;20094;-71
2024/01/03 07:37:25;;;;;;;24.70;17.48;;;;;;;6.34;74.37;94180.16;4197920;28;20040;-71
2024/01/03 07:39:27;;;;;;;20.13;16.70;;;;;;;6.38;73.77;94186.72;4204661;28;20507;-72
2024/01/03 07:41:30;;;;;;;21.65;16.95;;;;;;;6.44;73.34;94180.13;4196502;28;20056;-70
2024/01/03 07:43:32;;;;;;;21.45;16.80;;;;;;;6.51;73.01;94184.56;4206474;28;20052;-71
2024/01/03 07:45:35;;;;;;;18.63;15.20;;;;;;;6.54;73.10;94176.50;4199218;28;20040;-72
2024/01/03 07:47:36;;;;;;;19.10;15.57;;;;;;;6.64;72.74;94181.63;4201432;28;20047;-71
2024/01/03 07:49:39;;;;;;;19.33;15.95;;;;;;;6.66;72.56;94174.47;4192299;28;20052;-72
2024/01/03 07:51:41;;;;;;;19.45;15.45;;;;;;;6.70;72.15;94160.22;4191579;28;20044;-72
2024/01/03 07:53:42;;;;;;;21.02;16.33;;;;;;;6.68;72.14;94169.94;4206613;28;20052;-70
2024/01/03 07:55:44;;;;;;;20.58;16.15;;;;;;;6.71;72.28;94172.28;4200874;28;20369;-72
2024/01/03 07:57:46;;;;;;;21.67;17.75;;;;;;;6.76;72.08;94174.44;4203866;28;20058;-70
2024/01/03 07:59:48;;;;;;;24.92;17.83;;;;;;;6.76;72.19;94179.63;4201430;28;20062;-69
2024/01/03 08:01:50;;;;;;;20.52;15.10;;;;;;;6.76;72.21;94167.44;4194048;28;20143;-73
2024/01/03 08:03:54;;;;;;;21.15;15.82;;;;;;;6.84;72.33;94166.69;4198081;28;20058;-70
2024/01/03 08:05:56;;;;;;;18.67;15.35;;;;;;;6.90;71.96;94166.06;4199755;28;20128;-68
2024/01/03 08:07:59;;;;;;;21.98;16.55;;;;;;;6.93;71.76;94157.97;4199435;28;20422;-71
2024/01/03 08:10:01;;;;;;;18.05;15.93;;;;;;;6.97;71.48;94148.09;4198167;28;20160;-74
2024/01/03 08:12:05;;;;;;;21.45;14.80;;;;;;;6.77;71.71;94150.00;4199519;28;20048;-71
2024/01/03 08:14:07;;;;;;;19.88;14.82;;;;;;;6.63;72.33;94147.94;4194970;28;20057;-71
2024/01/03 08:16:10;;;;;;;18.83;15.25;;;;;;;6.69;72.25;94152.53;4192344;28;20059;-72
2024/01/03 08:18:12;;;;;;;23.02;16.05;;;;;;;6.71;72.51;94148.00;4193691;28;20052;-72
2024/01/03 08:20:15;;;;;;;21.88;16.23;;;;;;;6.56;72.90;94153.75;4198881;28;20087;-71
2024/01/03 08:22:17;;;;;;;19.88;15.63;;;;;;;6.68;72.99;94146.53;4192237;28;20048;-72
2024/01/03 08:24:19;;;;;;;21.48;16.52;;;;;;;6.77;72.55;94157.81;4207600;28;20055;-70
2024/01/03 08:26:21;;;;;;;26.63;17.42;;;;;;;6.90;72.76;94163.47;4200244;28;20055;-73
2024/01/03 08:28:23;;;;;;;23.35;17.02;;;;;;;6.98;71.64;94158.34;4194125;28;20063;-71
2024/01/03 08:30:25;;;;;;;22.20;16.67;;;;;;;7.06;71.63;94160.19;4204483;28;20144;-70
2024/01/03 08:32:27;;;;;;;21.70;16.75;;;;;;;7.04;71.41;94154.31;4206572;28;20060;-71
2024/01/03 08:34:29;;;;;;;20.98;15.43;;;;;;;7.02;71.45;94158.06;4205969;28;20074;-70
2024/01/03 08:36:41;;;;;;;20.88;16.40;;;;;;;6.93;72.22;94133.72;4207358;28;20048;-71
2024/01/03 08:38:43;;;;;;;20.42;15.95;;;;;;;6.87;71.66;94129.13;4196832;28;20085;-71
2024/01/03 08:40:45;;;;;;;18.90;15.25;;;;;;;6.89;71.93;94145.41;4191290;28;20048;-72
2024/01/03 08:42:47;;;;;;;19.50;15.57;;;;;;;6.96;72.26;94138.63;4199501;28;20060;-71
2024/01/03 08:44:51;;;;;;;22.50;15.85;;;;;;;7.08;71.84;94140.03;4198953;28;20092;-69
2024/01/03 08:46:53;;;;;;;18.60;14.63;;;;;;;6.86;71.49;94133.53;4191920;28;20086;-73
2024/01/03 08:48:54;;;;;;;18.33;14.35;;;;;;;6.54;71.93;94150.47;4203825;28;20063;-73
2024/01/03 08:50:57;;;;;;;20.27;15.00;;;;;;;6.16;74.12;94135.94;4193715;28;20094;-71
2024/01/03 08:52:59;;;;;;;29.23;19.27;;;;;;;6.21;74.79;94136.28;4205606;28;20443;-72
2024/01/03 08:55:01;;;;;;;21.80;16.98;;;;;;;6.39;74.50;94119.88;4209832;28;20059;-71
2024/01/03 08:57:03;;;;;;;22.38;16.00;;;;;;;6.60;74.08;94120.41;4206076;28;20040;-71
2024/01/03 08:59:05;;;;;;;21.02;16.23;;;;;;;6.52;72.85;94110.75;4209996;28;20515;-70
2024/01/03 09:01:08;;;;;;;22.83;16.58;;;;;;;6.24;74.08;94127.38;4200476;28;20143;-71
2024/01/03 09:03:10;;;;;;;33.50;24.80;;;;;;;6.13;74.69;94112.78;4206728;28;20490;-72
2024/01/03 09:05:13;;;;;;;40.60;30.70;;;;;;;5.80;75.62;94109.81;4197990;28;20299;-70
2024/01/03 09:07:15;;;;;;;51.42;37.75;;;;;;;5.71;75.57;94108.06;4201193;28;20045;-71
2024/01/03 09:09:17;;;;;;;58.20;38.13;;;;;;;5.89;75.81;94111.56;4190352;28;20109;-70
2024/01/03 09:11:23;;;;;;;44.92;34.95;;;;;;;6.12;75.32;94119.78;4203031;28;20478;-71
2024/01/03 09:13:25;;;;;;;48.00;35.42;;;;;;;6.08;74.05;94107.22;4203121;28;20052;-73
2024/01/03 09:15:27;;;;;;;57.00;38.20;;;;;;;5.85;74.15;94096.38;4205249;28;20054;-72
2024/01/03 09:17:29;;;;;;;57.83;38.22;;;;;;;5.76;75.07;94108.44;4196898;28;20055;-75
2024/01/03 09:19:31;;;;;;;58.90;39.65;;;;;;;5.46;75.31;94109.53;4198646;28;20116;-73
2024/01/03 09:21:33;;;;;;;61.55;43.00;;;;;;;5.30;76.15;94102.34;4197283;28;20092;-72
2024/01/03 09:23:36;;;;;;;60.13;43.55;;;;;;;5.24;76.69;94092.53;4203426;28;20478;-72
2024/01/03 09:25:38;;;;;;;66.28;45.13;;;;;;;4.96;77.46;94112.41;4203705;28;20087;-72
2024/01/03 09:27:39;;;;;;;62.38;44.92;;;;;;;4.86;77.67;94102.88;4207177;28;20087;-72
2024/01/03 09:29:41;;;;;;;62.75;44.72;;;;;;;5.09;77.58;94103.34;4197286;28;20159;-71
2024/01/03 09:31:43;;;;;;;65.40;43.35;;;;;;;5.45;78.08;94108.72;4203710;28;20535;-71